createdAt,value
2018-12-04T03:14:53.148Z,93519.55
2018-12-04T03:17:32.949Z,93528.37
2018-12-04T03:20:12.824Z,93525.69
2018-12-04T03:22:51.031Z,93524.78
2018-12-04T05:46:27.042Z,93670.52
2018-12-04T05:48:54.602Z,93674.03
2018-12-04T05:51:22.130Z,93674.11
2018-12-04T05:53:49.755Z,93679.33
2018-12-04T05:56:17.282Z,93680.52
2018-12-04T05:58:44.890Z,93683.94
2018-12-04T06:01:12.413Z,93694.44
2018-12-04T06:03:40.896Z,93707.17
2018-12-04T06:06:08.617Z,93707.78
2018-12-04T06:08:36.163Z,93699.21
2018-12-04T06:11:03.720Z,93694.66
2018-12-04T06:13:31.280Z,93710.59
2018-12-04T06:15:58.844Z,93714.68
2018-12-04T06:18:26.380Z,93733.34
2018-12-04T06:20:53.959Z,93731.05
2018-12-04T06:23:21.545Z,93741.17
2018-12-04T06:25:49.114Z,93745.41
2018-12-04T06:28:16.640Z,93751.28
2018-12-04T06:30:44.194Z,93746.11
2018-12-04T06:33:11.714Z,93749.11
2018-12-04T06:35:39.325Z,93755.59
2018-12-04T06:38:06.849Z,93761.72
2018-12-04T06:40:34.416Z,93771.45
2018-12-04T06:43:01.958Z,93770.98
2018-12-04T06:45:29.634Z,93771.47
2018-12-04T06:47:57.211Z,93775.11
2018-12-04T06:50:24.749Z,93788.44
2018-12-04T06:52:52.277Z,93786.80
2018-12-04T06:55:19.849Z,93793.17
2018-12-04T06:57:53.150Z,93792.84
2018-12-04T07:00:20.731Z,93803.48
2018-12-04T07:02:48.311Z,93797.30
2018-12-04T07:05:15.927Z,93802.89
2018-12-04T07:07:43.575Z,93807.73
2018-12-04T07:10:11.133Z,93813.17
2018-12-04T07:12:38.638Z,93810.67
2018-12-04T07:15:06.462Z,93824.06
2018-12-04T07:17:34.119Z,93827.00
2018-12-04T07:20:01.670Z,93830.59
2018-12-04T07:22:29.194Z,93829.93
2018-12-04T07:24:56.781Z,93839.72
2018-12-04T07:27:24.362Z,93843.91
2018-12-04T07:29:51.911Z,93849.70
2018-12-04T07:32:19.857Z,93849.00
2018-12-04T07:34:47.418Z,93854.31
2018-12-04T07:37:14.957Z,93873.28
2018-12-04T07:39:42.555Z,93866.44
2018-12-04T07:42:10.091Z,93878.55
2018-12-04T07:44:37.647Z,93875.98
2018-12-04T07:47:05.236Z,93875.00
2018-12-04T07:49:32.848Z,93881.56
2018-12-04T07:52:00.433Z,93884.82
2018-12-04T07:54:27.973Z,93901.11
2018-12-04T07:56:55.553Z,93909.17
2018-12-04T07:59:23.127Z,93920.06
2018-12-04T08:01:50.712Z,93935.40
2018-12-04T08:04:18.264Z,93941.01
2018-12-04T08:06:45.889Z,93948.86
2018-12-04T08:09:13.520Z,93949.84
2018-12-04T08:11:41.105Z,93953.16
2018-12-04T08:14:08.630Z,93964.27
2018-12-04T08:16:36.283Z,93961.01
2018-12-04T08:19:03.866Z,93963.31
2018-12-04T08:21:31.517Z,93968.55
2018-12-04T08:23:59.053Z,93971.77
2018-12-04T08:26:26.584Z,93969.52
2018-12-04T08:28:54.183Z,93978.00
2018-12-04T08:31:21.713Z,93981.91
2018-12-04T08:33:49.249Z,93986.15
2018-12-04T08:36:16.811Z,93987.83
2018-12-04T08:38:44.397Z,93996.58
2018-12-04T08:41:11.938Z,93993.27
2018-12-04T08:43:39.503Z,93998.95
2018-12-04T08:46:07.081Z,93999.79
2018-12-04T08:48:34.757Z,94007.62
2018-12-04T08:51:02.693Z,94014.48
2018-12-04T08:53:30.207Z,94019.72
2018-12-04T08:55:57.746Z,94026.70
2018-12-04T08:58:25.398Z,94032.08
2018-12-04T09:00:52.959Z,94040.25
2018-12-04T09:03:20.494Z,94036.00
2018-12-04T09:05:48.101Z,94043.41
2018-12-04T09:08:15.646Z,94056.67
2018-12-04T09:10:43.232Z,94072.16
2018-12-04T09:13:10.757Z,94070.67
2018-12-04T09:15:38.345Z,94072.16
2018-12-04T09:18:05.899Z,94068.52
2018-12-04T09:20:33.597Z,94069.13
2018-12-04T09:23:01.386Z,94070.90
2018-12-04T09:25:29.087Z,94079.50
2018-12-04T09:27:56.808Z,94077.19
2018-12-04T09:30:24.495Z,94075.55
2018-12-04T09:32:52.091Z,94079.70
2018-12-04T09:35:19.647Z,94084.31
2018-12-04T09:37:47.200Z,94095.44
2018-12-04T09:40:14.798Z,94096.47
2018-12-04T09:42:42.372Z,94101.72
2018-12-04T09:45:09.908Z,94098.83
2018-12-04T09:47:37.498Z,94102.16
2018-12-04T09:50:06.120Z,94108.02
2018-12-04T09:52:34.359Z,94108.04
2018-12-04T09:55:02.671Z,94116.53
2018-12-04T09:57:30.231Z,94118.48
2018-12-04T09:59:57.807Z,94116.53
2018-12-04T10:02:25.371Z,94116.22
2018-12-04T10:04:52.998Z,94118.81
2018-12-04T10:07:20.586Z,94116.22
2018-12-04T10:09:48.197Z,94117.84
2018-12-04T10:12:15.737Z,94117.35
2018-12-04T10:14:43.296Z,94119.14
2018-12-04T10:17:10.888Z,94123.64
2018-12-04T10:19:38.462Z,94118.36
2018-12-04T10:22:05.997Z,94116.67
2018-12-04T10:24:33.582Z,94114.98
2018-12-04T10:27:02.501Z,94123.63
2018-12-04T10:29:30.063Z,94129.91
2018-12-04T10:31:57.636Z,94144.76
2018-12-04T10:34:25.186Z,94140.23
2018-12-04T10:36:52.788Z,94141.52
2018-12-04T10:39:20.289Z,94141.86
2018-12-04T10:41:47.853Z,94147.39
2018-12-04T10:44:15.408Z,94142.98
2018-12-04T10:46:42.998Z,94146.06
2018-12-04T10:49:10.555Z,94138.52
2018-12-04T10:51:38.084Z,94138.05
2018-12-04T10:54:05.653Z,94142.95
2018-12-04T10:56:33.215Z,94138.64
2018-12-04T10:59:00.882Z,94139.66
2018-12-04T11:01:34.081Z,94146.58
2018-12-04T11:04:01.616Z,94153.11
2018-12-04T11:06:29.262Z,94153.44
2018-12-04T11:08:56.862Z,94155.61
2018-12-04T11:11:24.462Z,94164.29
2018-12-04T11:13:52.135Z,94156.41
2018-12-04T11:16:19.691Z,94167.83
2018-12-04T11:18:47.449Z,94163.27
2018-12-04T11:21:14.987Z,94165.39
2018-12-04T11:23:42.565Z,94162.93
2018-12-04T11:26:10.112Z,94162.87
2018-12-04T11:28:37.647Z,94165.52
2018-12-04T11:31:05.240Z,94164.56
2018-12-04T11:33:32.782Z,94169.63
2018-12-04T11:36:00.326Z,94170.75
2018-12-04T11:38:27.866Z,94172.98
2018-12-04T11:40:55.498Z,94161.46
2018-12-04T11:43:23.082Z,94167.25
2018-12-04T11:45:50.727Z,94165.92
2018-12-04T11:48:18.284Z,94164.31
2018-12-04T11:50:45.857Z,94163.35
2018-12-04T11:53:13.467Z,94166.91
2018-12-04T11:55:41.120Z,94167.48
2018-12-04T11:58:08.642Z,94171.02
2018-12-04T12:00:36.434Z,94162.55
2018-12-04T12:03:03.997Z,94167.78
2018-12-04T12:05:31.593Z,94173.03
2018-12-04T12:07:59.123Z,94165.80
2018-12-04T12:10:26.797Z,94169.36
2018-12-04T12:12:55.359Z,94175.89
2018-12-04T12:15:22.950Z,94186.37
2018-12-04T12:17:50.537Z,94187.41
2018-12-04T12:20:18.105Z,94194.27
2018-12-04T12:22:45.675Z,94190.95
2018-12-04T12:25:13.188Z,94194.56
2018-12-04T12:27:40.995Z,94200.48
2018-12-04T12:30:09.383Z,94209.63
2018-12-04T12:32:36.950Z,94203.09
2018-12-04T12:35:05.216Z,94215.55
2018-12-04T12:37:32.814Z,94216.56
2018-12-04T12:40:00.361Z,94216.56
2018-12-04T12:42:27.914Z,94216.88
2018-12-04T12:44:55.515Z,94213.12
2018-12-04T12:47:23.197Z,94217.19
2018-12-04T12:49:50.741Z,94216.22
2018-12-04T12:52:18.357Z,94222.77
2018-12-04T12:54:46.034Z,94229.36
2018-12-04T12:57:13.586Z,94223.80
2018-12-04T12:59:41.147Z,94235.52
2018-12-04T13:02:08.979Z,94232.77
2018-12-04T13:04:36.556Z,94233.61
2018-12-04T13:07:04.119Z,94226.56
2018-12-04T13:09:31.761Z,94239.45
2018-12-04T13:11:59.307Z,94238.80
2018-12-04T13:14:26.864Z,94245.34
2018-12-04T13:16:54.470Z,94248.30
2018-12-04T13:19:22.035Z,94252.37
2018-12-04T13:21:49.558Z,94255.81
2018-12-04T13:24:17.137Z,94251.22
2018-12-04T13:26:44.678Z,94254.17
2018-12-04T13:29:12.223Z,94257.59
2018-12-04T13:31:39.812Z,94260.36
2018-12-04T13:34:07.401Z,94261.66
2018-12-04T13:36:34.979Z,94262.00
2018-12-04T13:39:04.825Z,94267.56
2018-12-04T13:41:32.349Z,94265.94
2018-12-04T13:43:59.883Z,94267.88
2018-12-04T13:46:27.448Z,94264.94
2018-12-04T13:48:54.992Z,94274.39
2018-12-04T13:51:22.648Z,94272.11
2018-12-04T13:53:50.243Z,94284.19
2018-12-04T13:56:17.893Z,94285.83
2018-12-04T13:58:48.958Z,94291.69
2018-12-04T14:01:15.507Z,94298.88
2018-12-04T14:03:43.176Z,94303.44
2018-12-04T14:06:10.871Z,94308.34
2018-12-04T14:08:38.510Z,94308.97
2018-12-04T14:11:06.097Z,94312.56
2018-12-04T14:13:33.777Z,94303.77
2018-12-04T14:16:01.501Z,94307.36
2018-12-04T14:18:29.249Z,94315.50
2018-12-04T14:20:56.895Z,94317.80
2018-12-04T14:23:24.773Z,94323.68
2018-12-04T14:25:52.367Z,94324.65
2018-12-04T14:28:20.042Z,94320.40
2018-12-04T14:30:47.987Z,94324.97
2018-12-04T14:33:15.732Z,94317.16
2018-12-04T14:35:43.366Z,94318.45
2018-12-04T14:38:10.976Z,94316.83
2018-12-04T14:40:38.633Z,94317.47
2018-12-04T14:43:06.282Z,94327.77
2018-12-04T14:45:33.865Z,94325.98
2018-12-04T14:48:01.538Z,94326.91
2018-12-04T14:50:29.207Z,94324.97
2018-12-04T14:52:57.037Z,94330.02
2018-12-04T14:55:24.587Z,94326.92
2018-12-04T14:57:52.265Z,94331.14
2018-12-04T15:00:20.128Z,94335.08
2018-12-04T15:02:47.749Z,94343.23
2018-12-04T15:05:15.262Z,94340.78
2018-12-04T15:07:42.875Z,94346.16
2018-12-04T15:10:10.543Z,94351.04
2018-12-04T15:12:38.210Z,94353.34
2018-12-04T15:15:06.376Z,94356.62
2018-12-04T15:17:34.051Z,94364.58
2018-12-04T15:20:01.662Z,94367.34
2018-12-04T15:22:29.352Z,94370.91
2018-12-04T15:24:57.361Z,94377.77
2018-12-04T15:27:25.211Z,94373.38
2018-12-04T15:29:52.999Z,94379.70
2018-12-04T15:32:20.596Z,94389.13
2018-12-04T15:34:48.181Z,94391.41
2018-12-04T15:37:15.878Z,94394.88
2018-12-04T15:39:43.558Z,94398.94
2018-12-04T15:42:11.186Z,94401.54
2018-12-04T15:44:38.795Z,94407.05
2018-12-04T15:47:06.963Z,94410.33
2018-12-04T15:49:34.629Z,94416.16
2018-12-04T15:52:02.292Z,94415.79
2018-12-04T15:54:30.213Z,94421.20
2018-12-04T15:56:57.902Z,94415.16
2018-12-04T15:59:25.477Z,94425.73
2018-12-04T16:01:53.074Z,94424.95
2018-12-04T16:04:23.302Z,94424.50
2018-12-04T16:06:50.852Z,94419.00
2018-12-04T16:09:18.415Z,94418.33
2018-12-04T16:11:45.990Z,94420.30
2018-12-04T16:14:13.545Z,94431.36
2018-12-04T16:16:41.127Z,94435.26
2018-12-04T16:19:08.732Z,94440.12
2018-12-04T16:21:36.274Z,94442.03
2018-12-04T16:24:03.917Z,94451.83
2018-12-04T16:26:31.485Z,94448.20
2018-12-04T16:28:59.040Z,94448.48
2018-12-04T16:31:26.756Z,94445.23
2018-12-04T16:33:54.314Z,94446.20
2018-12-04T16:36:21.864Z,94446.19
2018-12-04T16:38:49.491Z,94442.27
2018-12-04T16:41:17.054Z,94443.88
2018-12-04T16:43:44.669Z,94450.02
2018-12-04T16:46:12.268Z,94462.38
2018-12-04T16:48:39.891Z,94465.34
2018-12-04T16:51:07.474Z,94472.19
2018-12-04T16:53:35.186Z,94473.83
2018-12-04T16:56:02.836Z,94477.23
2018-12-04T16:58:30.386Z,94481.63
2018-12-04T17:00:58.227Z,94468.94
2018-12-04T17:03:25.891Z,94474.77
2018-12-04T17:05:53.477Z,94475.11
2018-12-04T17:08:21.292Z,94473.88
2018-12-04T17:10:48.855Z,94483.53
2018-12-04T17:13:16.417Z,94485.81
2018-12-04T17:15:44.165Z,94495.26
2018-12-04T17:18:11.857Z,94497.16
2018-12-04T17:20:39.455Z,94497.06
2018-12-04T17:23:07.129Z,94502.49
2018-12-04T17:25:35.715Z,94499.16
2018-12-04T17:28:03.285Z,94506.98
2018-12-04T17:30:30.869Z,94510.55
2018-12-04T17:32:58.793Z,94510.86
2018-12-04T17:35:26.370Z,94520.00
2018-12-04T17:37:53.925Z,94521.67
2018-12-04T17:40:21.538Z,94527.39
2018-12-04T17:42:49.307Z,94528.92
2018-12-04T17:45:16.889Z,94531.02
2018-12-04T17:47:44.451Z,94526.18
2018-12-04T17:50:12.011Z,94526.78
2018-12-04T17:52:39.570Z,94521.20
2018-12-04T17:55:07.149Z,94523.83
2018-12-04T17:57:34.741Z,94525.02
2018-12-04T18:00:02.979Z,94531.06
2018-12-04T18:02:30.573Z,94531.13
2018-12-04T18:04:58.161Z,94525.58
2018-12-04T18:07:25.716Z,94519.69
2018-12-04T18:09:53.366Z,94512.67
2018-12-04T18:12:20.942Z,94516.84
2018-12-04T18:14:48.520Z,94525.95
2018-12-04T18:17:16.098Z,94524.92
2018-12-04T18:19:43.638Z,94525.16
2018-12-04T18:22:11.221Z,94527.73
2018-12-04T18:24:39.107Z,94535.39
2018-12-04T18:27:06.677Z,94529.55
2018-12-04T18:29:35.427Z,94534.84
2018-12-04T18:32:03.320Z,94538.20
2018-12-04T18:34:30.914Z,94547.38
2018-12-04T18:36:58.481Z,94547.28
2018-12-04T18:39:26.052Z,94552.63
2018-12-04T18:41:53.637Z,94555.36
2018-12-04T18:44:21.439Z,94558.11
2018-12-04T18:46:49.001Z,94564.95
2018-12-04T18:49:16.586Z,94567.42
2018-12-04T18:51:44.133Z,94569.69
2018-12-04T18:54:12.336Z,94564.44
2018-12-04T18:56:40.261Z,94565.02
2018-12-04T18:59:07.862Z,94566.37
2018-12-04T19:01:35.521Z,94579.58
2018-12-04T19:04:03.368Z,94576.02
2018-12-04T19:06:30.966Z,94576.70
2018-12-04T19:08:58.581Z,94574.47
2018-12-04T19:11:26.215Z,94572.55
2018-12-04T19:13:53.840Z,94576.11
2018-12-04T19:16:21.474Z,94576.25
2018-12-04T19:18:49.057Z,94575.43
2018-12-04T19:21:16.662Z,94571.19
2018-12-04T19:23:44.706Z,94577.82
2018-12-04T19:26:12.272Z,94572.47
2018-12-04T19:28:39.966Z,94580.42
2018-12-04T19:31:08.208Z,94584.03
2018-12-04T19:33:36.170Z,94596.51
2018-12-04T19:36:04.032Z,94589.03
2018-12-04T19:38:32.061Z,94586.44
2018-12-04T19:40:59.869Z,94590.47
2018-12-04T19:43:27.772Z,94582.00
2018-12-04T19:45:55.310Z,94586.16
2018-12-04T19:48:22.935Z,94594.17
2018-12-04T19:50:50.523Z,94582.69
2018-12-04T19:53:18.086Z,94573.91
2018-12-04T19:55:45.659Z,94569.37
2018-12-04T19:58:13.235Z,94567.92
2018-12-04T20:00:40.871Z,94581.78
2018-12-04T20:03:08.544Z,94579.14
2018-12-04T20:05:36.521Z,94574.03
2018-12-04T20:08:04.359Z,94578.34
2018-12-04T20:10:31.943Z,94586.05
2018-12-04T20:12:59.509Z,94580.27
2018-12-04T20:15:27.089Z,94584.78
2018-12-04T20:17:54.732Z,94583.14
2018-12-04T20:20:22.325Z,94577.42
2018-12-04T20:22:49.930Z,94582.18
2018-12-04T20:25:17.758Z,94583.45
2018-12-04T20:27:45.323Z,94587.11
2018-12-04T20:30:13.121Z,94581.60
2018-12-04T20:32:40.788Z,94586.05
2018-12-04T20:35:08.358Z,94589.64
2018-12-04T20:37:35.958Z,94589.64
2018-12-04T20:40:04.057Z,94588.27
2018-12-04T20:42:31.617Z,94591.44
2018-12-04T20:44:59.597Z,94591.97
2018-12-04T20:47:27.155Z,94592.86
2018-12-04T20:49:54.719Z,94592.20
2018-12-04T20:52:22.302Z,94599.18
2018-12-04T20:54:49.924Z,94599.70
2018-12-04T20:57:17.558Z,94605.55
2018-12-04T20:59:45.234Z,94614.66
2018-12-04T21:02:12.832Z,94608.16
2018-12-04T21:04:40.426Z,94605.30
2018-12-04T21:07:08.018Z,94601.34
2018-12-04T21:09:35.636Z,94607.58
2018-12-04T21:12:03.417Z,94607.89
2018-12-04T21:14:31.138Z,94612.91
2018-12-04T21:16:58.733Z,94605.84
2018-12-04T21:19:26.543Z,94606.18
2018-12-04T21:21:54.101Z,94609.66
2018-12-04T21:24:21.666Z,94602.76
2018-12-04T21:26:49.220Z,94599.63
2018-12-04T21:29:22.315Z,94607.14
2018-12-04T21:31:55.491Z,94605.11
2018-12-04T21:34:28.685Z,94606.09
2018-12-04T21:37:01.950Z,94609.11
2018-12-04T21:39:35.159Z,94620.06
2018-12-04T21:42:08.971Z,94616.25
2018-12-04T21:44:42.523Z,94626.87
2018-12-04T21:47:15.733Z,94638.06
2018-12-04T21:49:43.339Z,94625.66
2018-12-04T21:52:10.870Z,94619.19
2018-12-04T21:54:38.444Z,94625.52
2018-12-04T21:57:05.983Z,94619.50
2018-12-04T21:59:33.879Z,94617.97
2018-12-04T22:02:01.445Z,94620.15
2018-12-04T22:04:28.999Z,94629.98
2018-12-04T22:06:56.867Z,94640.40
2018-12-04T22:09:24.459Z,94637.06
2018-12-04T22:11:52.040Z,94641.41
2018-12-04T22:14:19.623Z,94645.78
2018-12-04T22:16:47.176Z,94646.52
2018-12-04T22:19:14.704Z,94633.81
2018-12-04T22:21:42.487Z,94636.75
2018-12-04T22:24:10.049Z,94645.52
2018-12-04T22:26:37.651Z,94648.13
2018-12-04T22:29:05.711Z,94648.34
2018-12-04T22:31:33.249Z,94638.94
2018-12-04T22:34:00.801Z,94634.98
2018-12-04T22:36:28.333Z,94624.19
2018-12-04T22:38:55.865Z,94628.32
2018-12-04T22:41:23.415Z,94632.17
2018-12-04T22:43:51.003Z,94621.25
2018-12-04T22:46:18.571Z,94632.17
2018-12-04T22:48:47.006Z,94644.89
2018-12-04T22:51:14.543Z,94641.59
2018-12-04T22:53:42.112Z,94638.89
2018-12-04T22:56:09.728Z,94639.53
2018-12-04T22:58:37.250Z,94634.08
2018-12-04T23:01:05.137Z,94634.78
2018-12-04T23:03:32.675Z,94641.28
2018-12-04T23:06:00.254Z,94643.11
2018-12-04T23:08:27.819Z,94638.16
2018-12-04T23:10:55.396Z,94636.81
2018-12-04T23:13:22.980Z,94637.20
2018-12-04T23:15:50.661Z,94638.73
2018-12-04T23:18:18.223Z,94635.22
2018-12-04T23:20:45.778Z,94628.22
2018-12-04T23:23:13.314Z,94619.11
2018-12-04T23:25:40.993Z,94611.00
2018-12-04T23:28:08.849Z,94612.83
2018-12-04T23:30:36.385Z,94612.78
2018-12-04T23:33:03.957Z,94618.38
2018-12-04T23:35:31.518Z,94620.59
2018-12-04T23:37:59.038Z,94620.91
2018-12-04T23:40:26.605Z,94609.73
2018-12-04T23:42:54.162Z,94617.85
2018-12-04T23:45:21.738Z,94610.36
2018-12-04T23:47:49.339Z,94611.57
2018-12-04T23:50:16.894Z,94607.63
2018-12-04T23:52:44.426Z,94609.54
2018-12-04T23:55:11.956Z,94616.69
2018-12-04T23:57:39.487Z,94626.80
